Time;durP1;ratioP1;P1;durP2;ratioP2;P2;SDS_P1;SDS_P2;PMS_P1;PMS_P2;Temp;Humidity;BMP_temperature;BMP_pressure;BME280_temperature;BME280_humidity;BME280_pressure;Samples;Min_cycle;Max_cycle;Signal;HPM_P1;HPM_P2
2021/05/02 00:02:04;;;;;;;42.03;32.60;;;7.40;99.90;;;;;;5001499;28;20435;-65
2021/05/02 00:04:30;;;;;;;43.27;31.53;;;7.30;99.90;;;;;;5004089;28;21050;-65
2021/05/02 00:06:55;;;;;;;43.33;33.07;;;7.30;99.90;;;;;;5009560;28;20257;-65
2021/05/02 00:09:21;;;;;;;41.13;32.27;;;7.30;99.90;;;;;;4998036;28;20373;-67
2021/05/02 00:11:46;;;;;;;43.73;30.87;;;7.20;99.90;;;;;;5010973;28;20677;-65
2021/05/02 00:14:12;;;;;;;38.73;29.10;;;7.20;99.90;;;;;;5005779;28;20649;-65
2021/05/02 00:16:38;;;;;;;39.97;31.63;;;7.20;99.90;;;;;;4992811;28;20665;-65
2021/05/02 00:19:08;;;;;;;36.83;30.87;;;7.20;99.90;;;;;;5009232;28;20543;-65
2021/05/02 00:21:34;;;;;;;38.20;30.90;;;7.20;99.90;;;;;;5010625;28;20437;-65
2021/05/02 00:24:01;;;;;;;39.63;31.13;;;7.20;99.90;;;;;;5010176;28;20441;-65
2021/05/02 00:26:27;;;;;;;38.60;31.53;;;7.20;99.90;;;;;;5011249;28;20501;-65
2021/05/02 00:28:53;;;;;;;41.00;32.70;;;7.30;99.90;;;;;;4999169;28;20493;-66
2021/05/02 00:31:19;;;;;;;43.50;32.27;;;7.30;99.90;;;;;;5010694;28;20174;-65
2021/05/02 00:33:45;;;;;;;42.87;31.70;;;7.30;99.90;;;;;;5011108;28;20520;-64
2021/05/02 00:36:11;;;;;;;37.77;30.73;;;7.20;99.90;;;;;;5010984;28;20728;-65
2021/05/02 00:38:40;;;;;;;33.97;28.93;;;7.20;99.90;;;;;;5005188;28;20434;-65
2021/05/02 00:41:10;;;;;;;37.73;28.23;;;7.10;99.90;;;;;;4998576;28;20438;-65
2021/05/02 00:43:57;;;;;;;34.23;30.40;;;7.10;99.90;;;;;;5002397;28;20437;-65
2021/05/02 00:46:38;;;;;;;37.43;29.57;;;7.10;99.90;;;;;;5010859;28;20460;-65
2021/05/02 00:49:37;;;;;;;39.47;32.03;;;7.10;99.90;;;;;;5006985;28;20458;-65
2021/05/02 00:52:10;;;;;;;33.93;30.30;;;7.10;99.90;;;;;;5003165;28;20813;-65
2021/05/02 00:54:39;;;;;;;40.73;30.10;;;7.10;99.90;;;;;;5010495;28;20466;-65
2021/05/02 00:57:31;;;;;;;32.50;27.77;;;7.10;99.90;;;;;;5009972;28;20433;-66
2021/05/02 01:00:02;;;;;;;36.77;31.20;;;7.10;99.90;;;;;;5009765;28;20831;-65
2021/05/02 01:02:29;;;;;;;38.13;31.40;;;7.10;99.90;;;;;;5009840;28;20438;-65
2021/05/02 01:04:59;;;;;;;38.10;32.57;;;7.20;99.90;;;;;;5010214;28;20813;-65
2021/05/02 01:07:42;;;;;;;43.87;33.37;;;7.20;99.90;;;;;;5008239;28;20441;-65
2021/05/02 01:10:13;;;;;;;37.30;31.47;;;7.20;99.90;;;;;;4998340;28;20885;-65
2021/05/02 01:12:50;;;;;;;39.27;32.03;;;7.20;99.90;;;;;;5000485;28;20485;-64
2021/05/02 01:15:23;;;;;;;40.17;30.50;;;7.20;99.90;;;;;;5006733;28;20694;-65
2021/05/02 01:17:59;;;;;;;38.47;33.00;;;7.10;99.90;;;;;;5010338;28;20804;-65
2021/05/02 01:20:26;;;;;;;39.70;31.20;;;7.20;99.90;;;;;;5009461;28;20426;-65
2021/05/02 01:22:56;;;;;;;40.23;32.37;;;7.20;99.90;;;;;;5010397;28;20476;-65
2021/05/02 01:25:23;;;;;;;39.57;32.60;;;7.30;99.90;;;;;;5010147;28;20527;-66
2021/05/02 01:27:55;;;;;;;38.73;32.27;;;7.30;99.90;;;;;;5010511;28;20447;-64
2021/05/02 01:30:21;;;;;;;34.83;31.07;;;7.30;99.90;;;;;;5010084;28;20861;-65
2021/05/02 01:32:47;;;;;;;37.20;31.70;;;7.20;99.90;;;;;;5009829;28;20946;-65
2021/05/02 01:35:13;;;;;;;37.37;32.13;;;7.20;99.90;;;;;;5004613;28;20465;-65
2021/05/02 01:37:39;;;;;;;36.60;29.53;;;7.20;99.90;;;;;;5009050;28;20233;-66
2021/05/02 01:40:06;;;;;;;39.63;33.37;;;7.20;99.90;;;;;;4994898;28;20470;-66
2021/05/02 01:42:33;;;;;;;42.23;32.90;;;7.10;99.90;;;;;;5001567;28;20442;-65
2021/05/02 01:44:58;;;;;;;40.10;33.77;;;7.10;99.90;;;;;;5004287;28;20511;-65
2021/05/02 01:47:25;;;;;;;45.57;35.63;;;7.10;99.90;;;;;;5009015;28;20520;-64
2021/05/02 01:50:02;;;;;;;36.40;30.53;;;7.10;99.90;;;;;;5013449;28;20214;-65
2021/05/02 01:52:30;;;;;;;38.47;31.57;;;7.10;99.90;;;;;;5013447;28;20432;-66
2021/05/02 01:54:56;;;;;;;37.67;31.77;;;7.20;99.90;;;;;;5012516;28;20449;-64
2021/05/02 01:57:26;;;;;;;35.07;31.20;;;7.20;99.90;;;;;;5001930;28;20480;-65
2021/05/02 01:59:55;;;;;;;32.63;29.20;;;7.10;99.90;;;;;;5012934;28;20517;-65
2021/05/02 02:02:22;;;;;;;37.27;30.43;;;7.10;99.90;;;;;;5013523;28;20441;-65
2021/05/02 02:04:52;;;;;;;39.23;29.23;;;7.10;99.90;;;;;;5009127;28;20480;-65
2021/05/02 02:07:19;;;;;;;33.30;29.33;;;7.00;99.90;;;;;;5013450;28;20436;-65
2021/05/02 02:09:45;;;;;;;35.13;29.83;;;6.90;99.90;;;;;;5001144;28;20549;-65
2021/05/02 02:12:11;;;;;;;32.83;28.97;;;6.90;99.90;;;;;;5013777;28;20429;-65
2021/05/02 02:14:37;;;;;;;37.43;32.30;;;6.90;99.90;;;;;;5009097;28;20461;-64
2021/05/02 02:17:05;;;;;;;35.10;31.37;;;6.90;99.90;;;;;;5011473;28;20528;-65
2021/05/02 02:19:31;;;;;;;37.53;31.23;;;6.90;99.90;;;;;;5009716;28;20440;-65
2021/05/02 02:21:58;;;;;;;32.53;29.10;;;6.80;99.90;;;;;;4998981;28;20457;-64
2021/05/02 02:24:44;;;;;;;36.10;32.30;;;6.80;99.90;;;;;;5001845;28;20205;-64
2021/05/02 02:27:10;;;;;;;39.80;33.20;;;6.80;99.90;;;;;;5012086;28;20441;-64
2021/05/02 02:29:47;;;;;;;35.50;29.57;;;6.80;99.90;;;;;;5001616;28;20473;-64
2021/05/02 02:32:15;;;;;;;36.03;31.87;;;6.70;99.90;;;;;;5012388;28;20478;-64
2021/05/02 02:34:48;;;;;;;36.53;32.47;;;6.80;99.90;;;;;;5012858;28;20880;-64
2021/05/02 02:37:18;;;;;;;36.83;32.90;;;6.80;99.90;;;;;;4999135;28;20537;-64
2021/05/02 02:39:49;;;;;;;40.40;33.60;;;6.80;99.90;;;;;;4999906;28;20806;-64
2021/05/02 02:42:17;;;;;;;36.70;31.60;;;6.80;99.90;;;;;;5010818;28;20855;-64
2021/05/02 02:44:48;;;;;;;43.87;34.87;;;6.80;99.90;;;;;;5012461;28;20514;-64
2021/05/02 02:47:18;;;;;;;39.23;30.10;;;6.90;99.90;;;;;;5010352;28;20443;-64
2021/05/02 02:49:47;;;;;;;40.20;33.20;;;6.90;99.90;;;;;;5010142;28;20493;-64
2021/05/02 02:52:18;;;;;;;35.80;31.80;;;6.90;99.90;;;;;;5001457;28;20505;-64
2021/05/02 02:54:48;;;;;;;37.00;32.97;;;6.90;99.90;;;;;;5012630;28;20453;-64
2021/05/02 02:57:20;;;;;;;37.47;32.27;;;6.90;99.90;;;;;;4994470;28;20466;-64
2021/05/02 02:59:47;;;;;;;37.93;31.00;;;6.90;99.90;;;;;;5002007;28;20962;-64
2021/05/02 03:02:15;;;;;;;36.60;32.70;;;6.90;99.90;;;;;;5007034;28;20513;-64
2021/05/02 03:04:44;;;;;;;38.73;31.73;;;6.80;99.90;;;;;;4999793;28;20501;-64
2021/05/02 03:07:11;;;;;;;43.50;35.37;;;6.70;99.90;;;;;;5011606;28;20507;-65
2021/05/02 03:09:40;;;;;;;38.50;33.47;;;6.70;99.90;;;;;;5011564;28;20496;-64
2021/05/02 03:12:10;;;;;;;36.47;32.47;;;6.80;99.90;;;;;;5001232;28;20791;-65
2021/05/02 03:14:38;;;;;;;42.33;33.43;;;6.80;99.90;;;;;;5011999;28;20462;-64
2021/05/02 03:17:05;;;;;;;35.73;31.90;;;6.80;99.90;;;;;;4996408;28;20434;-64
2021/05/02 03:19:37;;;;;;;40.23;34.20;;;6.90;99.90;;;;;;5004173;28;20952;-64
2021/05/02 03:22:07;;;;;;;40.30;34.40;;;6.80;99.90;;;;;;4996568;28;20449;-64
2021/05/02 03:24:40;;;;;;;35.67;31.40;;;6.80;99.90;;;;;;5006948;28;20464;-64
2021/05/02 03:27:17;;;;;;;36.07;30.53;;;6.90;99.90;;;;;;5011862;28;20425;-65
2021/05/02 03:29:47;;;;;;;41.47;35.03;;;6.80;99.90;;;;;;5011795;28;20469;-65
2021/05/02 03:32:15;;;;;;;40.10;35.00;;;6.80;99.90;;;;;;5008764;28;20445;-65
2021/05/02 03:34:42;;;;;;;38.23;33.93;;;6.70;99.90;;;;;;5006248;28;20453;-64
2021/05/02 03:37:14;;;;;;;38.50;31.70;;;6.80;99.90;;;;;;5011175;28;20474;-64
2021/05/02 03:39:41;;;;;;;38.63;34.00;;;6.90;99.90;;;;;;5010130;28;20469;-64
2021/05/02 03:42:07;;;;;;;38.87;33.40;;;6.90;99.90;;;;;;4999832;28;20437;-65
2021/05/02 03:44:32;;;;;;;37.63;33.53;;;6.90;99.90;;;;;;5010847;28;20484;-64
2021/05/02 03:46:58;;;;;;;36.60;32.20;;;6.90;99.90;;;;;;5004968;28;20577;-64
2021/05/02 03:49:23;;;;;;;44.17;35.43;;;6.90;99.90;;;;;;5011143;28;20249;-65
2021/05/02 03:51:50;;;;;;;39.23;35.03;;;7.00;99.90;;;;;;5010845;28;20191;-64
2021/05/02 03:54:15;;;;;;;39.53;34.63;;;7.00;99.90;;;;;;5010701;28;20181;-65
2021/05/02 03:56:43;;;;;;;41.30;35.87;;;7.10;99.90;;;;;;5011139;28;20524;-65
2021/05/02 03:59:17;;;;;;;41.60;36.00;;;7.10;99.90;;;;;;5009872;28;20591;-65
2021/05/02 04:01:52;;;;;;;38.57;34.50;;;7.00;99.90;;;;;;5004116;28;20440;-65
2021/05/02 04:04:20;;;;;;;39.00;34.30;;;7.00;99.90;;;;;;5008809;28;20441;-65
2021/05/02 04:06:47;;;;;;;40.33;35.93;;;7.00;99.90;;;;;;5010406;28;20492;-65
2021/05/02 04:09:14;;;;;;;38.10;33.60;;;7.00;99.90;;;;;;5010186;28;20465;-64
2021/05/02 04:11:42;;;;;;;42.00;37.17;;;7.00;99.90;;;;;;5005821;28;20810;-64
2021/05/02 04:14:10;;;;;;;39.67;34.20;;;7.00;99.90;;;;;;4994977;28;20529;-64
2021/05/02 04:16:36;;;;;;;36.67;32.60;;;7.00;99.90;;;;;;5006126;28;20473;-64
2021/05/02 04:19:04;;;;;;;38.57;34.43;;;7.00;99.90;;;;;;5010828;28;20429;-64
2021/05/02 04:21:30;;;;;;;38.27;34.13;;;7.10;99.90;;;;;;5000744;28;20466;-64
2021/05/02 04:23:56;;;;;;;36.87;32.53;;;7.10;99.90;;;;;;5003549;28;20454;-64
2021/05/02 04:26:21;;;;;;;45.13;36.67;;;7.10;99.90;;;;;;5011170;28;20450;-64
2021/05/02 04:28:47;;;;;;;41.90;35.43;;;7.10;99.90;;;;;;5010220;28;20233;-64
2021/05/02 04:31:13;;;;;;;41.40;36.13;;;7.10;99.90;;;;;;5007073;28;20194;-64
2021/05/02 04:33:39;;;;;;;43.20;35.03;;;7.10;99.90;;;;;;4992003;28;20183;-64
2021/05/02 04:36:05;;;;;;;40.10;35.70;;;7.10;99.90;;;;;;5008429;28;20242;-64
2021/05/02 04:38:31;;;;;;;42.10;36.00;;;7.10;99.90;;;;;;5010708;28;20942;-64
2021/05/02 04:40:57;;;;;;;44.80;36.50;;;7.00;99.90;;;;;;5010190;28;20433;-64
2021/05/02 04:43:22;;;;;;;42.77;37.37;;;7.00;99.90;;;;;;5010692;28;20200;-64
2021/05/02 04:45:48;;;;;;;43.17;38.47;;;6.90;99.90;;;;;;5004002;28;20470;-64
2021/05/02 04:48:14;;;;;;;41.43;35.90;;;6.80;99.90;;;;;;5007836;28;20199;-64
2021/05/02 04:50:39;;;;;;;43.20;37.60;;;6.90;99.90;;;;;;5004771;28;20206;-64
2021/05/02 04:53:05;;;;;;;45.93;35.80;;;6.80;99.90;;;;;;5003015;28;20434;-64
2021/05/02 04:55:31;;;;;;;42.53;37.00;;;6.80;99.90;;;;;;5010892;28;20252;-64
2021/05/02 04:57:57;;;;;;;44.00;39.07;;;6.80;99.90;;;;;;5010754;28;20229;-64
2021/05/02 05:00:24;;;;;;;44.87;39.40;;;6.80;99.90;;;;;;5010164;28;20688;-64
2021/05/02 05:02:50;;;;;;;44.20;36.17;;;6.90;99.90;;;;;;5011905;28;20442;-64
2021/05/02 05:05:16;;;;;;;44.07;38.20;;;6.90;99.90;;;;;;5020741;28;20912;-64
2021/05/02 05:07:42;;;;;;;43.60;36.97;;;6.90;99.90;;;;;;5010456;28;20517;-64
2021/05/02 05:10:08;;;;;;;42.83;35.67;;;6.90;99.90;;;;;;5010658;28;20207;-64
2021/05/02 05:12:37;;;;;;;37.43;33.40;;;6.90;99.90;;;;;;5010728;28;20645;-64
2021/05/02 05:15:03;;;;;;;41.50;36.97;;;7.00;99.90;;;;;;5011543;28;20497;-64
2021/05/02 05:17:29;;;;;;;40.40;34.50;;;7.00;99.90;;;;;;5010319;28;20806;-64
2021/05/02 05:19:54;;;;;;;38.87;34.67;;;7.00;99.90;;;;;;5010873;28;20442;-64
2021/05/02 05:22:21;;;;;;;36.13;32.00;;;7.10;99.90;;;;;;5019461;28;20203;-64
2021/05/02 05:24:47;;;;;;;40.53;35.90;;;7.20;99.90;;;;;;5021895;28;20250;-64
2021/05/02 05:27:12;;;;;;;40.10;35.30;;;7.20;99.90;;;;;;5018563;28;20432;-65
2021/05/02 05:29:38;;;;;;;41.37;35.37;;;7.20;99.90;;;;;;5019543;28;20646;-64
2021/05/02 05:32:03;;;;;;;38.07;33.97;;;7.10;99.90;;;;;;5014262;28;20710;-64
2021/05/02 05:34:30;;;;;;;37.00;33.03;;;7.20;99.90;;;;;;5017099;28;20190;-64
2021/05/02 05:36:56;;;;;;;36.37;31.53;;;7.20;99.90;;;;;;5013464;28;20425;-64
2021/05/02 05:39:22;;;;;;;37.93;32.17;;;7.20;99.90;;;;;;5013490;28;20467;-64
2021/05/02 05:41:47;;;;;;;36.53;32.93;;;7.30;99.90;;;;;;5019138;28;20179;-65
2021/05/02 05:44:13;;;;;;;34.13;30.57;;;7.40;99.90;;;;;;5013715;28;20183;-65
2021/05/02 05:46:38;;;;;;;37.03;33.00;;;7.50;99.90;;;;;;5013674;28;20182;-64
2021/05/02 05:49:04;;;;;;;35.40;31.87;;;7.50;99.90;;;;;;5013404;28;20202;-64
2021/05/02 05:51:29;;;;;;;35.43;31.90;;;7.60;99.90;;;;;;5008879;28;20607;-64
2021/05/02 05:53:55;;;;;;;29.80;26.80;;;7.70;99.90;;;;;;5025802;28;20266;-64
2021/05/02 05:56:20;;;;;;;35.10;31.30;;;7.80;99.90;;;;;;5024495;28;20197;-64
2021/05/02 05:58:46;;;;;;;32.47;29.17;;;7.90;99.90;;;;;;5014381;28;20182;-64
2021/05/02 06:01:11;;;;;;;35.77;31.20;;;8.00;99.90;;;;;;5011459;28;20183;-65
2021/05/02 06:03:37;;;;;;;32.27;29.10;;;8.30;99.90;;;;;;5008952;28;20728;-66
2021/05/02 06:06:02;;;;;;;29.57;26.63;;;8.40;99.90;;;;;;5011456;28;20191;-64
2021/05/02 06:08:28;;;;;;;35.43;28.37;;;8.60;99.90;;;;;;5013372;28;20179;-65
2021/05/02 06:10:53;;;;;;;31.83;28.40;;;8.70;99.90;;;;;;5012770;28;20245;-65
2021/05/02 06:13:19;;;;;;;31.10;27.00;;;8.60;99.90;;;;;;5013160;28;20217;-65
2021/05/02 06:15:45;;;;;;;31.13;28.03;;;8.50;99.90;;;;;;5013053;28;20281;-65
2021/05/02 06:18:11;;;;;;;30.77;27.87;;;8.30;99.90;;;;;;5013143;28;20193;-65
2021/05/02 06:20:37;;;;;;;30.23;27.23;;;8.30;99.90;;;;;;5012783;28;20190;-64
2021/05/02 06:23:02;;;;;;;31.73;28.53;;;8.30;99.90;;;;;;5013028;28;20930;-65
2021/05/02 06:25:28;;;;;;;32.03;28.63;;;8.20;99.90;;;;;;5012900;28;20528;-64
2021/05/02 06:27:56;;;;;;;29.17;26.30;;;8.20;99.90;;;;;;5013410;28;20175;-64
2021/05/02 06:30:23;;;;;;;29.70;26.73;;;8.30;99.90;;;;;;5012604;28;20194;-65
2021/05/02 06:32:49;;;;;;;28.17;25.47;;;8.30;99.90;;;;;;5004194;28;20513;-65
2021/05/02 06:35:14;;;;;;;30.27;27.00;;;8.30;99.90;;;;;;5008971;28;20948;-65
2021/05/02 06:37:40;;;;;;;29.73;26.83;;;8.50;99.90;;;;;;5012462;28;20186;-64
2021/05/02 06:40:06;;;;;;;28.27;25.60;;;8.70;99.90;;;;;;5012664;28;20190;-64
2021/05/02 06:42:32;;;;;;;29.20;25.90;;;8.70;99.90;;;;;;5003400;28;20587;-65
2021/05/02 06:44:57;;;;;;;27.47;24.77;;;8.80;99.90;;;;;;5009266;28;20477;-65
2021/05/02 06:47:23;;;;;;;26.47;24.07;;;8.90;99.90;;;;;;5008572;28;20198;-65
2021/05/02 06:49:49;;;;;;;25.30;22.80;;;9.20;99.90;;;;;;5009083;28;20692;-65
2021/05/02 06:52:14;;;;;;;28.50;23.83;;;9.20;99.90;;;;;;4998744;28;20554;-65
2021/05/02 06:54:40;;;;;;;26.77;24.17;;;9.20;99.90;;;;;;4996973;28;20221;-65
2021/05/02 06:57:05;;;;;;;26.73;24.13;;;9.60;99.90;;;;;;5004116;28;20183;-65
2021/05/02 06:59:31;;;;;;;26.43;23.93;;;10.10;99.90;;;;;;5006021;28;20187;-65
2021/05/02 07:01:57;;;;;;;28.57;25.67;;;10.40;99.90;;;;;;5001339;28;20782;-66
2021/05/02 07:04:22;;;;;;;26.80;24.03;;;10.40;99.90;;;;;;5009242;28;20679;-66
2021/05/02 07:06:48;;;;;;;23.73;21.57;;;10.20;99.90;;;;;;5005229;28;20186;-66
2021/05/02 07:09:13;;;;;;;24.07;21.80;;;10.10;99.90;;;;;;5009069;28;20199;-67
2021/05/02 07:11:39;;;;;;;23.70;21.50;;;10.00;99.90;;;;;;5008707;28;20213;-66
2021/05/02 07:14:05;;;;;;;25.77;23.07;;;10.20;99.90;;;;;;5009214;28;20171;-67
2021/05/02 07:16:30;;;;;;;24.43;22.23;;;10.10;99.90;;;;;;5008310;28;20230;-66
2021/05/02 07:18:56;;;;;;;23.13;21.03;;;10.20;99.90;;;;;;5008595;28;20191;-67
2021/05/02 07:21:22;;;;;;;23.67;21.27;;;10.30;99.90;;;;;;5008152;28;20187;-66
2021/05/02 07:23:52;;;;;;;21.73;19.83;;;10.50;99.90;;;;;;5008610;28;20191;-67
2021/05/02 07:26:19;;;;;;;20.43;18.63;;;10.60;99.90;;;;;;5007509;28;20203;-66
2021/05/02 07:28:45;;;;;;;20.90;18.90;;;11.20;99.90;;;;;;5008350;28;20440;-67
2021/05/02 07:31:11;;;;;;;21.57;19.67;;;11.40;99.90;;;;;;4998455;28;20442;-66
2021/05/02 07:33:41;;;;;;;21.60;19.77;;;11.50;99.90;;;;;;5005168;28;20270;-66
2021/05/02 07:36:07;;;;;;;21.47;19.57;;;11.60;99.90;;;;;;5008776;28;20240;-66
2021/05/02 07:38:33;;;;;;;20.17;18.47;;;11.40;99.90;;;;;;5008910;28;20430;-66
2021/05/02 07:40:59;;;;;;;20.90;18.97;;;11.50;99.90;;;;;;5008524;28;20434;-67
2021/05/02 07:43:25;;;;;;;20.07;18.27;;;11.70;99.90;;;;;;5010492;28;20957;-67
2021/05/02 07:45:51;;;;;;;20.90;19.00;;;12.10;99.90;;;;;;5014015;28;20218;-67
2021/05/02 07:48:17;;;;;;;19.90;18.20;;;12.50;99.90;;;;;;5008684;28;20210;-66
2021/05/02 07:50:42;;;;;;;22.13;19.93;;;12.50;99.90;;;;;;5008221;28;20512;-66
2021/05/02 07:53:08;;;;;;;21.70;19.60;;;12.50;99.90;;;;;;5007154;28;20676;-66
2021/05/02 07:55:34;;;;;;;20.33;18.50;;;12.40;99.90;;;;;;5007627;28;20195;-66
2021/05/02 07:58:00;;;;;;;19.57;17.47;;;12.60;99.90;;;;;;5007509;28;20167;-66
2021/05/02 08:00:27;;;;;;;19.03;17.27;;;12.40;99.90;;;;;;4999483;28;20479;-65
2021/05/02 08:02:52;;;;;;;19.73;17.93;;;12.60;99.90;;;;;;5005948;28;20669;-65
2021/05/02 08:05:18;;;;;;;19.93;17.83;;;12.70;99.90;;;;;;5006799;28;20453;-65
2021/05/02 08:07:44;;;;;;;19.50;17.60;;;12.50;99.90;;;;;;5007650;28;20255;-65
2021/05/02 08:10:11;;;;;;;19.43;17.60;;;12.50;99.90;;;;;;5008772;28;20981;-65
2021/05/02 08:12:36;;;;;;;18.80;16.93;;;12.40;99.90;;;;;;5000689;28;20885;-65
2021/05/02 08:15:03;;;;;;;20.80;18.90;;;12.30;99.90;;;;;;5006172;28;20458;-64
2021/05/02 08:17:28;;;;;;;20.83;18.70;;;12.60;99.90;;;;;;5008043;28;20183;-65
2021/05/02 08:19:54;;;;;;;20.37;18.23;;;12.70;99.90;;;;;;5008267;28;20800;-63
2021/05/02 08:22:19;;;;;;;19.53;17.57;;;12.80;99.90;;;;;;5000536;28;20679;-65
2021/05/02 08:24:45;;;;;;;19.13;17.33;;;13.30;99.90;;;;;;5006419;28;20230;-65
2021/05/02 08:27:11;;;;;;;18.90;17.10;;;13.80;99.90;;;;;;5007778;28;20187;-65
2021/05/02 08:29:37;;;;;;;19.30;17.80;;;14.60;99.90;;;;;;5004606;28;20504;-65
2021/05/02 08:32:03;;;;;;;19.33;17.83;;;14.90;99.90;;;;;;5007818;28;20219;-65
2021/05/02 08:34:29;;;;;;;19.80;17.90;;;14.70;99.90;;;;;;5006070;28;20462;-64
2021/05/02 08:36:54;;;;;;;19.97;18.20;;;14.40;99.90;;;;;;5008058;28;20653;-65
2021/05/02 08:39:20;;;;;;;20.67;18.50;;;14.10;99.90;;;;;;5010224;28;20184;-65
2021/05/02 08:41:45;;;;;;;20.43;18.60;;;13.40;99.90;;;;;;4999682;28;20178;-67
2021/05/02 08:44:11;;;;;;;18.80;17.10;;;12.80;99.90;;;;;;5004285;28;20187;-65
2021/05/02 08:46:37;;;;;;;18.73;17.13;;;12.70;99.90;;;;;;5006965;28;20727;-65
2021/05/02 08:49:05;;;;;;;19.30;17.77;;;12.90;99.90;;;;;;5006132;28;20433;-65
2021/05/02 08:51:31;;;;;;;19.20;17.50;;;12.90;99.90;;;;;;4997798;28;20186;-65
2021/05/02 08:53:57;;;;;;;18.90;17.10;;;13.00;99.90;;;;;;4991184;28;20527;-65
2021/05/02 08:56:23;;;;;;;18.90;17.20;;;13.00;99.90;;;;;;5006240;28;20465;-64
2021/05/02 08:58:49;;;;;;;18.87;17.17;;;12.70;99.90;;;;;;5001246;28;20180;-65
2021/05/02 09:01:14;;;;;;;18.37;16.83;;;12.90;99.90;;;;;;5003962;28;20443;-64
2021/05/02 09:03:47;;;;;;;20.17;18.57;;;13.30;99.90;;;;;;5013294;28;20174;-65
2021/05/02 09:06:23;;;;;;;18.43;16.80;;;13.30;99.90;;;;;;5012462;28;20784;-65
2021/05/02 09:08:51;;;;;;;20.17;18.37;;;13.70;99.90;;;;;;5009688;28;20429;-65
2021/05/02 09:11:29;;;;;;;20.43;18.73;;;13.70;99.90;;;;;;5014106;28;20451;-64
2021/05/02 09:13:55;;;;;;;18.40;16.80;;;14.00;99.90;;;;;;5014210;28;20437;-63
2021/05/02 09:16:21;;;;;;;18.20;16.70;;;14.50;99.90;;;;;;5014587;28;20474;-65
2021/05/02 09:18:51;;;;;;;18.00;16.63;;;14.90;99.90;;;;;;5013413;28;20461;-65
2021/05/02 09:21:27;;;;;;;19.70;18.00;;;15.10;99.90;;;;;;5013901;28;20217;-64
2021/05/02 09:23:54;;;;;;;19.10;17.20;;;15.90;99.90;;;;;;5014529;28;20432;-64
2021/05/02 09:26:27;;;;;;;18.10;16.60;;;16.50;99.50;;;;;;5014332;28;20520;-64
2021/05/02 09:28:59;;;;;;;18.03;16.53;;;16.90;97.70;;;;;;5014003;28;20830;-65
2021/05/02 09:31:35;;;;;;;18.93;17.23;;;16.70;97.80;;;;;;5013833;28;20953;-65
2021/05/02 09:34:12;;;;;;;18.27;16.50;;;17.30;96.30;;;;;;5014004;28;20422;-65
2021/05/02 09:36:55;;;;;;;19.00;17.40;;;18.20;94.80;;;;;;5013937;28;20420;-65
2021/05/02 09:39:40;;;;;;;20.97;19.07;;;17.10;92.50;;;;;;5010921;28;20480;-65
2021/05/02 09:42:20;;;;;;;19.20;17.50;;;15.90;93.10;;;;;;5003961;28;20800;-65
2021/05/02 09:44:47;;;;;;;19.90;18.20;;;15.70;94.60;;;;;;5008441;28;20628;-63
2021/05/02 09:47:31;;;;;;;21.37;19.33;;;15.80;95.20;;;;;;5010211;28;20528;-65
2021/05/02 09:50:10;;;;;;;20.60;18.70;;;15.10;95.70;;;;;;5011230;28;20805;-65
2021/05/02 09:53:02;;;;;;;19.60;17.93;;;14.30;97.80;;;;;;5012746;28;20615;-67
2021/05/02 09:55:32;;;;;;;19.80;18.10;;;14.10;98.90;;;;;;5006036;28;20456;-65
2021/05/02 09:57:59;;;;;;;19.93;18.23;;;14.90;98.50;;;;;;5013536;28;20421;-65
2021/05/02 10:00:29;;;;;;;18.40;16.90;;;16.70;95.60;;;;;;5005586;28;20465;-65
2021/05/02 10:02:55;;;;;;;18.17;16.67;;;17.80;91.40;;;;;;5011299;28;20885;-66
2021/05/02 10:05:22;;;;;;;21.03;19.40;;;17.70;89.80;;;;;;5013336;28;20993;-66
2021/05/02 10:07:49;;;;;;;19.60;18.00;;;17.30;89.50;;;;;;5013060;28;20935;-65
2021/05/02 10:10:15;;;;;;;18.43;17.03;;;17.40;87.40;;;;;;5012907;28;20974;-64
2021/05/02 10:12:45;;;;;;;20.50;18.67;;;18.30;81.60;;;;;;5013362;28;20440;-65
2021/05/02 10:15:12;;;;;;;18.80;17.40;;;17.60;82.80;;;;;;5013150;28;21004;-64
2021/05/02 10:17:38;;;;;;;21.93;20.00;;;17.80;83.00;;;;;;5010137;28;20460;-65
2021/05/02 10:20:04;;;;;;;19.73;18.10;;;17.80;81.60;;;;;;5003276;28;20462;-65
2021/05/02 10:22:30;;;;;;;20.43;18.90;;;17.30;78.80;;;;;;5013368;28;20452;-65
2021/05/02 10:24:56;;;;;;;22.83;20.80;;;16.40;80.00;;;;;;5012971;28;20814;-65
2021/05/02 10:27:22;;;;;;;19.73;18.20;;;16.10;83.10;;;;;;5011933;28;20438;-65
2021/05/02 10:29:49;;;;;;;21.33;19.43;;;15.00;88.60;;;;;;5012828;28;20221;-65
2021/05/02 10:32:18;;;;;;;20.60;18.67;;;14.70;90.90;;;;;;5010279;28;20175;-64
2021/05/02 10:34:49;;;;;;;21.80;20.10;;;15.10;91.30;;;;;;5011615;28;20446;-64
2021/05/02 10:37:24;;;;;;;21.47;19.67;;;15.50;90.90;;;;;;5011555;28;20462;-64
2021/05/02 10:40:18;;;;;;;20.20;18.20;;;16.10;91.60;;;;;;5009029;28;20433;-65
2021/05/02 10:42:52;;;;;;;19.33;17.73;;;16.80;90.00;;;;;;5008699;28;20833;-65
2021/05/02 10:45:30;;;;;;;19.53;18.03;;;17.40;82.20;;;;;;5012802;28;20548;-67
2021/05/02 10:47:57;;;;;;;17.97;16.47;;;18.40;77.60;;;;;;5008348;28;20438;-66
2021/05/02 10:50:28;;;;;;;17.40;16.10;;;19.80;73.20;;;;;;5011115;28;20507;-65
2021/05/02 10:53:13;;;;;;;19.63;17.73;;;20.20;71.70;;;;;;5012515;28;20803;-65
2021/05/02 10:56:10;;;;;;;19.13;17.73;;;22.30;66.60;;;;;;5012953;28;20446;-65
2021/05/02 10:58:40;;;;;;;18.77;17.27;;;22.60;58.30;;;;;;5012618;28;20779;-66
2021/05/02 11:01:10;;;;;;;17.93;16.53;;;23.90;54.30;;;;;;5012285;28;20433;-65
2021/05/02 11:03:38;;;;;;;17.20;16.00;;;24.30;52.00;;;;;;5012653;28;20464;-66
2021/05/02 11:06:11;;;;;;;17.80;16.40;;;23.60;51.20;;;;;;5012516;28;20458;-66
2021/05/02 11:08:50;;;;;;;15.90;14.70;;;23.40;50.80;;;;;;5012281;28;20488;-65
2021/05/02 11:11:31;;;;;;;18.47;17.07;;;23.20;51.30;;;;;;5005303;28;20434;-66
2021/05/02 11:16:34;;;;;;;16.10;14.97;;;20.60;53.80;;;;;;5011875;28;20752;-64
2021/05/02 11:19:01;;;;;;;18.37;16.93;;;20.60;55.10;;;;;;5011256;28;20747;-65
2021/05/02 11:21:26;;;;;;;17.20;15.80;;;19.40;55.70;;;;;;5012015;28;20586;-66
2021/05/02 11:24:00;;;;;;;19.07;17.20;;;18.70;59.10;;;;;;5012246;28;20493;-64
2021/05/02 11:26:50;;;;;;;18.17;16.77;;;18.00;58.50;;;;;;4998886;28;20213;-64
2021/05/02 11:29:20;;;;;;;16.63;15.37;;;16.90;62.70;;;;;;4993176;28;20541;-64
2021/05/02 11:31:45;;;;;;;17.20;15.90;;;15.80;68.50;;;;;;5011965;28;20950;-64
2021/05/02 11:34:11;;;;;;;18.47;17.00;;;14.80;80.60;;;;;;5012133;28;20410;-63
2021/05/02 11:36:41;;;;;;;16.80;15.53;;;14.50;96.00;;;;;;4996479;28;20183;-64
2021/05/02 11:39:27;;;;;;;15.20;14.20;;;14.80;98.60;;;;;;5012325;28;20167;-64
2021/05/02 11:42:04;;;;;;;14.70;13.53;;;15.90;98.40;;;;;;5001878;28;20438;-65
2021/05/02 11:44:32;;;;;;;12.97;12.07;;;17.20;93.80;;;;;;5010520;28;20462;-64
2021/05/02 11:47:07;;;;;;;14.37;13.27;;;17.30;91.10;;;;;;5021323;28;20942;-65
2021/05/02 11:49:36;;;;;;;13.73;12.67;;;17.20;91.50;;;;;;5012312;28;20492;-64
2021/05/02 11:52:02;;;;;;;16.70;15.23;;;17.00;90.60;;;;;;5017720;28;20927;-65
2021/05/02 11:54:27;;;;;;;16.50;15.20;;;16.30;90.50;;;;;;5011202;28;20982;-65
2021/05/02 11:56:53;;;;;;;16.07;14.77;;;15.50;92.10;;;;;;4997269;28;20434;-64
2021/05/02 11:59:19;;;;;;;15.43;14.10;;;15.90;92.70;;;;;;5008328;28;20277;-65
2021/05/02 12:01:48;;;;;;;16.33;15.13;;;16.80;91.80;;;;;;5007918;28;20186;-65
2021/05/02 12:04:19;;;;;;;16.43;15.03;;;17.10;90.40;;;;;;5007747;28;20185;-65
2021/05/02 12:06:55;;;;;;;16.63;15.47;;;17.30;90.20;;;;;;5008200;28;20433;-66
2021/05/02 12:09:23;;;;;;;15.60;14.40;;;18.90;85.80;;;;;;5004257;28;20457;-65
2021/05/02 12:11:57;;;;;;;17.47;16.27;;;20.50;79.00;;;;;;5006666;28;20512;-64
2021/05/02 12:14:25;;;;;;;16.33;15.13;;;20.40;72.90;;;;;;5004761;28;20454;-65
2021/05/02 12:16:55;;;;;;;15.20;13.83;;;18.70;74.40;;;;;;5008915;28;20821;-65
2021/05/02 12:19:21;;;;;;;18.40;16.83;;;17.30;77.30;;;;;;5008084;28;20440;-65
2021/05/02 12:21:47;;;;;;;20.77;19.17;;;16.00;83.80;;;;;;5014905;28;20444;-65
2021/05/02 12:24:14;;;;;;;17.77;16.27;;;14.80;98.90;;;;;;5012089;28;20560;-65
2021/05/02 12:26:43;;;;;;;15.87;14.63;;;13.40;99.90;;;;;;5008648;28;20478;-65
2021/05/02 12:29:24;;;;;;;14.03;12.93;;;12.10;99.90;;;;;;5006040;28;20488;-65
2021/05/02 12:31:52;;;;;;;13.50;12.40;;;11.10;99.90;;;;;;4991312;28;20425;-66
2021/05/02 12:34:18;;;;;;;11.20;10.30;;;10.60;99.90;;;;;;5006615;28;20452;-66
2021/05/02 12:36:44;;;;;;;12.30;11.27;;;10.40;99.90;;;;;;5004897;28;20443;-66
2021/05/02 12:39:13;;;;;;;10.70;9.80;;;10.80;99.90;;;;;;4998925;28;20433;-65
2021/05/02 12:41:40;;;;;;;9.10;8.30;;;11.70;99.90;;;;;;5004955;28;20213;-64
2021/05/02 12:44:23;;;;;;;9.47;8.77;;;12.80;99.90;;;;;;5006818;28;20430;-65